Time;durP1;ratioP1;P1;durP2;ratioP2;P2;SDS_P1;SDS_P2;PMS_P1;PMS_P2;Temp;Humidity;BMP_temperature;BMP_pressure;BME280_temperature;BME280_humidity;BME280_pressure;Samples;Min_cycle;Max_cycle;Signal;HPM_P1;HPM_P2
2021/10/19 00:00:14;;;;;;;7.75;5.18;;;12.30;99.90;;;;;;5029350;28;20036;-80
2021/10/19 00:02:41;;;;;;;7.00;4.32;;;12.30;99.90;;;;;;5004705;28;20053;-80
2021/10/19 00:05:08;;;;;;;6.68;4.32;;;12.30;99.90;;;;;;5029148;28;20049;-80
2021/10/19 00:07:33;;;;;;;10.70;4.75;;;12.30;99.90;;;;;;5003787;28;20081;-79
2021/10/19 00:09:59;;;;;;;11.15;4.93;;;12.30;99.90;;;;;;5015391;28;20083;-78
2021/10/19 00:12:26;;;;;;;8.82;4.10;;;12.30;99.90;;;;;;5006808;28;20033;-78
2021/10/19 00:14:52;;;;;;;9.90;4.95;;;12.30;99.90;;;;;;5011081;28;20080;-79
2021/10/19 00:17:18;;;;;;;11.00;6.10;;;12.30;99.90;;;;;;5025380;28;20560;-79
2021/10/19 00:19:44;;;;;;;6.07;4.45;;;12.30;99.90;;;;;;5025598;28;20419;-80
2021/10/19 00:22:10;;;;;;;7.88;4.80;;;12.30;99.90;;;;;;5038179;28;20045;-79
2021/10/19 00:24:36;;;;;;;8.60;5.40;;;12.40;99.90;;;;;;5000027;28;20037;-79
2021/10/19 00:27:04;;;;;;;8.25;4.85;;;12.30;99.90;;;;;;5023819;28;20045;-79
2021/10/19 00:29:30;;;;;;;8.70;5.80;;;12.40;99.90;;;;;;5001372;28;20037;-80
2021/10/19 00:31:56;;;;;;;;;;;12.30;99.90;;;;;;5014645;28;21027;-80
2021/10/19 00:34:22;;;;;;;9.18;4.70;;;12.20;99.90;;;;;;5013443;28;19925;-78
2021/10/19 00:36:47;;;;;;;8.65;4.32;;;12.20;99.90;;;;;;5005011;28;20033;-79
2021/10/19 00:39:14;;;;;;;6.45;3.67;;;12.20;99.90;;;;;;5019128;28;20038;-79
2021/10/19 00:41:39;;;;;;;7.15;4.32;;;12.20;99.90;;;;;;4997545;28;20049;-80
2021/10/19 00:44:06;;;;;;;7.28;5.78;;;12.20;99.90;;;;;;5015706;28;20471;-78
2021/10/19 00:46:32;;;;;;;8.05;4.15;;;12.10;99.90;;;;;;4997419;28;20037;-79
2021/10/19 00:48:58;;;;;;;5.38;4.63;;;12.20;99.90;;;;;;5017035;28;20375;-79
2021/10/19 00:51:24;;;;;;;7.47;4.10;;;12.10;99.90;;;;;;5007867;28;20479;-79
2021/10/19 00:53:50;;;;;;;;;;;12.10;99.90;;;;;;5015497;28;20049;-79
2021/10/19 00:56:16;;;;;;;6.72;3.60;;;12.10;99.90;;;;;;5048983;28;19917;-80
2021/10/19 00:58:42;;;;;;;6.85;4.32;;;12.10;99.90;;;;;;5014902;28;20482;-80
2021/10/19 01:01:09;;;;;;;6.63;4.20;;;12.10;99.90;;;;;;5027468;28;20048;-80
2021/10/19 01:03:34;;;;;;;8.35;4.15;;;12.10;99.90;;;;;;5012816;28;20402;-78
2021/10/19 01:06:03;;;;;;;5.38;4.13;;;12.20;99.90;;;;;;5023037;28;20050;-79
2021/10/19 01:08:29;;;;;;;7.07;4.53;;;12.20;99.90;;;;;;5005541;28;20037;-79
2021/10/19 01:10:56;;;;;;;7.90;3.88;;;12.30;99.90;;;;;;5020699;28;20049;-80
2021/10/19 01:13:21;;;;;;;6.32;5.50;;;12.30;99.90;;;;;;5010715;28;20037;-79
2021/10/19 01:15:48;;;;;;;7.53;4.28;;;12.40;99.90;;;;;;5033144;28;20039;-79
2021/10/19 01:18:15;;;;;;;7.10;4.88;;;12.40;99.90;;;;;;5015579;28;20083;-79
2021/10/19 01:20:43;;;;;;;7.75;3.97;;;12.40;99.90;;;;;;5014827;28;20521;-79
2021/10/19 01:23:10;;;;;;;10.07;5.47;;;12.40;99.90;;;;;;5024250;28;20044;-79
2021/10/19 01:25:37;;;;;;;7.10;4.70;;;12.40;99.90;;;;;;5018792;28;20461;-78
2021/10/19 01:28:04;;;;;;;6.18;3.92;;;12.40;99.90;;;;;;4999510;28;20133;-78
2021/10/19 01:30:31;;;;;;;7.93;4.53;;;12.40;99.90;;;;;;5025444;28;20076;-78
2021/10/19 01:32:56;;;;;;;;;;;12.40;99.90;;;;;;5016179;28;20037;-78
2021/10/19 01:35:40;;;;;;;7.78;4.15;;;12.40;99.90;;;;;;5022198;28;20093;-78
2021/10/19 01:38:09;;;;;;;7.20;4.03;;;12.40;99.90;;;;;;5004295;28;20033;-79
2021/10/19 01:40:36;;;;;;;7.80;3.90;;;12.50;99.90;;;;;;5021429;28;20067;-79
2021/10/19 01:43:07;;;;;;;9.35;5.30;;;12.50;99.90;;;;;;5026237;28;20048;-79
2021/10/19 01:45:32;;;;;;;4.15;3.55;;;12.40;99.90;;;;;;5045921;28;20044;-80
2021/10/19 01:47:58;;;;;;;10.00;5.88;;;12.50;99.90;;;;;;5034007;28;20100;-79
2021/10/19 01:50:25;;;;;;;6.82;4.47;;;12.50;99.90;;;;;;5023500;28;20127;-80
2021/10/19 01:52:51;;;;;;;6.38;3.92;;;12.50;99.90;;;;;;5002054;28;20128;-79
2021/10/19 01:55:17;;;;;;;5.28;3.97;;;12.50;99.90;;;;;;5016318;28;20120;-80
2021/10/19 01:57:43;;;;;;;11.05;4.45;;;12.50;99.90;;;;;;5025861;28;20045;-80
2021/10/19 02:00:10;;;;;;;7.30;4.47;;;12.50;99.90;;;;;;5017694;28;20091;-79
2021/10/19 02:02:35;;;;;;;8.02;5.90;;;12.50;99.90;;;;;;5016712;28;20041;-80
2021/10/19 02:05:01;;;;;;;7.03;5.90;;;12.50;99.90;;;;;;5032139;28;20044;-79
2021/10/19 02:07:27;;;;;;;7.35;4.25;;;12.60;99.90;;;;;;5009618;28;20478;-79
2021/10/19 02:09:52;;;;;;;6.22;4.57;;;12.60;99.90;;;;;;5044699;28;20394;-78
2021/10/19 02:12:18;;;;;;;9.23;5.40;;;12.60;99.90;;;;;;5050729;28;20029;-79
2021/10/19 02:14:44;;;;;;;9.00;4.82;;;12.60;99.90;;;;;;5040379;28;20498;-79
2021/10/19 02:17:09;;;;;;;13.65;5.88;;;12.60;99.90;;;;;;5004059;28;20067;-78
2021/10/19 02:19:35;;;;;;;8.68;5.03;;;12.60;99.90;;;;;;5017409;28;20383;-80
2021/10/19 02:22:01;;;;;;;6.10;4.50;;;12.60;99.90;;;;;;5011764;28;20043;-80
2021/10/19 02:24:27;;;;;;;6.80;3.88;;;12.70;99.90;;;;;;5002783;28;20045;-78
2021/10/19 02:26:52;;;;;;;10.00;4.70;;;12.70;99.90;;;;;;5015704;28;20124;-78
2021/10/19 02:29:19;;;;;;;7.13;4.80;;;12.70;99.90;;;;;;5040312;28;20041;-77
2021/10/19 02:31:46;;;;;;;6.53;4.38;;;12.70;99.90;;;;;;5030724;28;20040;-77
2021/10/19 02:34:13;;;;;;;8.80;5.20;;;12.70;99.90;;;;;;5013961;28;20394;-77
2021/10/19 02:36:39;;;;;;;7.03;5.13;;;12.70;99.90;;;;;;5015443;28;20045;-77
2021/10/19 02:39:06;;;;;;;9.02;5.53;;;12.60;99.90;;;;;;5015264;28;20044;-78
2021/10/19 02:41:37;;;;;;;7.53;4.63;;;12.60;99.90;;;;;;5027333;28;20406;-77
2021/10/19 02:44:03;;;;;;;5.05;3.50;;;12.60;99.90;;;;;;5014446;28;20051;-78
2021/10/19 02:46:31;;;;;;;11.57;5.55;;;12.60;99.90;;;;;;5047750;28;20053;-79
2021/10/19 02:48:58;;;;;;;8.13;5.72;;;12.60;99.90;;;;;;5029796;28;20098;-78
2021/10/19 02:51:24;;;;;;;10.73;5.43;;;12.50;99.90;;;;;;5015087;28;20410;-78
2021/10/19 02:53:50;;;;;;;6.97;5.28;;;12.50;99.90;;;;;;5026008;28;20041;-79
2021/10/19 02:56:15;;;;;;;6.28;5.00;;;12.50;99.90;;;;;;5030495;28;20037;-78
2021/10/19 02:58:41;;;;;;;4.07;3.33;;;12.60;99.90;;;;;;5012824;28;20580;-78
2021/10/19 03:01:07;;;;;;;10.65;4.22;;;12.50;99.90;;;;;;5031399;28;20084;-78
2021/10/19 03:03:32;;;;;;;9.45;5.57;;;12.60;99.90;;;;;;5013746;28;20410;-78
2021/10/19 03:05:59;;;;;;;5.30;4.05;;;12.60;99.90;;;;;;5030460;28;20056;-78
2021/10/19 03:08:24;;;;;;;6.50;4.63;;;12.60;99.90;;;;;;5047429;28;20037;-77
2021/10/19 03:10:50;;;;;;;5.40;4.57;;;12.60;99.90;;;;;;5022149;28;20167;-80
2021/10/19 03:13:16;;;;;;;8.13;5.20;;;12.60;99.90;;;;;;5030148;28;20094;-80
2021/10/19 03:15:42;;;;;;;6.78;4.60;;;12.60;99.90;;;;;;5009792;28;20043;-78
2021/10/19 03:18:08;;;;;;;8.48;5.25;;;12.60;99.90;;;;;;5027239;28;20066;-80
2021/10/19 03:20:34;;;;;;;8.98;4.43;;;12.60;99.90;;;;;;5013155;28;20155;-79
2021/10/19 03:23:00;;;;;;;16.33;7.07;;;12.60;99.90;;;;;;5044129;28;20294;-79
2021/10/19 03:25:26;;;;;;;9.20;4.75;;;12.60;99.90;;;;;;5048052;28;20071;-80
2021/10/19 03:27:51;;;;;;;5.95;3.72;;;12.60;99.90;;;;;;5008238;28;20041;-78
2021/10/19 03:30:17;;;;;;;7.22;4.47;;;12.60;99.90;;;;;;5030035;28;20045;-77
2021/10/19 03:32:43;;;;;;;9.25;5.15;;;12.70;99.90;;;;;;5020954;28;20038;-79
2021/10/19 03:35:09;;;;;;;7.45;4.53;;;12.70;99.90;;;;;;5010268;28;20045;-79
2021/10/19 03:37:34;;;;;;;9.18;4.93;;;12.70;99.90;;;;;;5019549;28;20073;-77
2021/10/19 03:40:00;;;;;;;10.10;6.10;;;12.70;99.90;;;;;;5011246;28;20613;-78
2021/10/19 03:42:26;;;;;;;8.23;5.90;;;12.80;99.90;;;;;;5018852;28;20509;-78
2021/10/19 03:44:52;;;;;;;9.00;4.57;;;12.80;99.90;;;;;;5024507;28;20556;-78
2021/10/19 03:47:17;;;;;;;6.30;4.15;;;12.80;99.90;;;;;;5038103;28;20034;-77
2021/10/19 03:49:43;;;;;;;8.32;5.38;;;12.80;99.90;;;;;;5028663;28;20399;-78
2021/10/19 03:52:09;;;;;;;9.90;5.72;;;12.80;99.90;;;;;;5006363;28;20071;-77
2021/10/19 03:54:35;;;;;;;13.00;5.30;;;12.90;99.90;;;;;;5020667;28;20041;-76
2021/10/19 03:57:01;;;;;;;9.23;3.83;;;12.90;99.90;;;;;;5014292;28;20069;-77
2021/10/19 03:59:29;;;;;;;8.90;4.80;;;13.00;99.90;;;;;;5016455;28;20127;-78
2021/10/19 04:01:55;;;;;;;8.30;5.07;;;12.90;99.90;;;;;;5023983;28;20494;-78
2021/10/19 04:04:21;;;;;;;7.97;4.20;;;12.90;99.90;;;;;;5033243;28;20071;-78
2021/10/19 04:06:47;;;;;;;5.97;4.70;;;13.00;99.90;;;;;;5032141;28;20482;-77
2021/10/19 04:09:13;;;;;;;4.70;3.20;;;12.90;99.90;;;;;;5007489;28;20049;-78
2021/10/19 04:11:38;;;;;;;6.65;4.30;;;13.00;99.90;;;;;;5032657;28;20047;-78
2021/10/19 04:14:04;;;;;;;7.90;4.57;;;12.90;99.90;;;;;;5039441;28;20038;-78
2021/10/19 04:16:30;;;;;;;5.85;4.22;;;12.90;99.90;;;;;;5016263;28;20451;-78
2021/10/19 04:18:56;;;;;;;9.25;4.32;;;12.90;99.90;;;;;;5025349;28;20132;-78
2021/10/19 04:21:22;;;;;;;8.75;5.00;;;12.90;99.90;;;;;;5031749;28;20383;-78
2021/10/19 04:23:47;;;;;;;10.05;5.82;;;13.00;99.90;;;;;;5034819;28;20052;-78
2021/10/19 04:26:13;;;;;;;5.63;4.93;;;13.00;99.90;;;;;;5034927;28;20455;-78
2021/10/19 04:28:41;;;;;;;8.05;5.00;;;13.00;99.90;;;;;;5033874;28;20041;-78
2021/10/19 04:31:06;;;;;;;12.63;4.78;;;12.90;99.90;;;;;;5016089;28;20080;-77
2021/10/19 04:33:32;;;;;;;7.57;5.10;;;13.00;99.90;;;;;;5033478;28;20531;-77
2021/10/19 04:35:58;;;;;;;10.25;4.82;;;13.00;99.90;;;;;;5015509;28;20379;-78
2021/10/19 04:38:24;;;;;;;11.65;5.10;;;13.00;99.90;;;;;;5050286;28;20047;-78
2021/10/19 04:40:50;;;;;;;9.82;4.55;;;13.00;99.90;;;;;;5031990;28;20044;-78
2021/10/19 04:43:15;;;;;;;7.03;4.50;;;13.00;99.90;;;;;;5033167;28;20044;-79
2021/10/19 04:45:41;;;;;;;6.63;4.95;;;13.00;99.90;;;;;;5032585;28;20045;-79
2021/10/19 04:48:08;;;;;;;6.15;4.53;;;13.00;99.90;;;;;;4994653;28;20100;-78
2021/10/19 04:50:34;;;;;;;9.80;4.35;;;13.00;99.90;;;;;;4998983;28;20138;-79
2021/10/19 04:53:01;;;;;;;5.13;4.30;;;13.00;99.90;;;;;;5032449;28;20051;-78
2021/10/19 04:55:27;;;;;;;6.18;4.38;;;13.00;99.90;;;;;;5032573;28;20041;-79
2021/10/19 04:57:53;;;;;;;5.47;4.60;;;13.00;99.90;;;;;;5032863;28;20294;-79
2021/10/19 05:00:19;;;;;;;12.25;5.05;;;13.00;99.90;;;;;;5026425;28;20059;-79
2021/10/19 05:02:46;;;;;;;6.53;3.92;;;13.00;99.90;;;;;;5015384;28;20052;-77
2021/10/19 05:05:13;;;;;;;12.88;4.97;;;13.10;99.90;;;;;;5031327;28;20098;-78
2021/10/19 05:07:39;;;;;;;5.88;4.28;;;13.00;99.90;;;;;;5031755;28;20045;-79
2021/10/19 05:10:05;;;;;;;;;;;13.00;99.90;;;;;;5034829;28;20045;-79
2021/10/19 05:12:31;;;;;;;5.57;4.05;;;13.00;99.90;;;;;;5017720;28;19982;-79
2021/10/19 05:14:57;;;;;;;6.75;4.38;;;13.00;99.90;;;;;;5035696;28;20040;-78
2021/10/19 05:17:23;;;;;;;;;;;13.00;99.90;;;;;;5025376;28;20128;-79
2021/10/19 05:19:49;;;;;;;8.02;5.05;;;13.00;99.90;;;;;;5035482;28;20421;-78
2021/10/19 05:22:15;;;;;;;;;;;13.00;99.90;;;;;;5036286;28;20094;-78
2021/10/19 05:24:43;;;;;;;5.63;4.50;;;13.00;99.90;;;;;;5053061;28;19921;-78
2021/10/19 05:27:09;;;;;;;8.68;4.93;;;12.90;99.90;;;;;;5035983;28;20120;-79
2021/10/19 05:29:35;;;;;;;5.50;5.00;;;12.90;99.90;;;;;;5036056;28;20037;-78
2021/10/19 05:32:00;;;;;;;6.88;4.93;;;12.80;99.90;;;;;;5018965;28;20103;-79
2021/10/19 05:34:26;;;;;;;9.05;3.95;;;12.80;99.90;;;;;;5019642;28;20045;-80
2021/10/19 05:36:52;;;;;;;5.28;4.15;;;12.80;99.90;;;;;;5036030;28;20124;-80
2021/10/19 05:39:18;;;;;;;7.95;4.32;;;12.80;99.90;;;;;;5027913;28;20037;-79
2021/10/19 05:41:44;;;;;;;8.50;5.63;;;12.80;99.90;;;;;;5017293;28;20033;-80
2021/10/19 05:44:10;;;;;;;9.32;5.22;;;12.70;99.90;;;;;;5035058;28;20071;-79
2021/10/19 05:46:35;;;;;;;11.52;5.57;;;12.70;99.90;;;;;;5003227;28;20048;-79
2021/10/19 05:49:01;;;;;;;13.07;4.88;;;12.70;99.90;;;;;;5034912;28;20040;-79
2021/10/19 05:51:27;;;;;;;9.45;6.78;;;12.70;99.90;;;;;;5054294;28;20049;-78
2021/10/19 05:53:53;;;;;;;11.23;4.88;;;12.70;99.90;;;;;;5039437;28;20040;-78
2021/10/19 05:56:18;;;;;;;10.98;6.70;;;12.60;99.90;;;;;;5019561;28;20063;-79
2021/10/19 05:58:44;;;;;;;9.80;6.30;;;12.60;99.90;;;;;;5018767;28;20065;-79
2021/10/19 06:01:10;;;;;;;8.18;6.25;;;12.60;99.90;;;;;;5020049;28;20052;-79
2021/10/19 06:03:36;;;;;;;;;;;12.60;99.90;;;;;;5035900;28;20045;-79
2021/10/19 06:06:02;;;;;;;14.10;6.13;;;12.60;99.90;;;;;;5018555;28;19929;-79
2021/10/19 06:08:27;;;;;;;7.68;4.78;;;12.60;99.90;;;;;;5036113;28;20067;-79
2021/10/19 06:10:56;;;;;;;10.32;4.85;;;12.60;99.90;;;;;;5035514;28;20049;-79
2021/10/19 06:13:23;;;;;;;5.97;4.75;;;12.60;99.90;;;;;;5021377;28;20047;-79
2021/10/19 06:15:49;;;;;;;8.75;5.10;;;12.60;99.90;;;;;;5020379;28;20083;-79
2021/10/19 06:18:14;;;;;;;8.95;5.72;;;12.60;99.90;;;;;;5054909;28;20037;-79
2021/10/19 06:20:40;;;;;;;8.07;5.97;;;12.60;99.90;;;;;;5054072;28;20049;-79
2021/10/19 06:23:06;;;;;;;8.27;4.95;;;12.50;99.90;;;;;;5036758;28;20636;-79
2021/10/19 06:25:32;;;;;;;11.40;5.72;;;12.60;99.90;;;;;;5048430;28;20043;-78
2021/10/19 06:27:58;;;;;;;5.28;4.18;;;12.60;99.90;;;;;;5040973;28;20044;-79
2021/10/19 06:30:23;;;;;;;9.18;4.47;;;12.50;99.90;;;;;;5018776;28;20053;-79
2021/10/19 06:32:49;;;;;;;5.82;5.13;;;12.60;99.90;;;;;;5034562;28;20039;-78
2021/10/19 06:35:15;;;;;;;10.48;6.43;;;12.50;99.90;;;;;;5019636;28;20043;-78
2021/10/19 06:37:40;;;;;;;11.40;6.25;;;12.60;99.90;;;;;;5014902;28;20490;-79
2021/10/19 06:40:08;;;;;;;8.32;5.60;;;12.50;99.90;;;;;;5011430;28;20394;-79
2021/10/19 06:42:34;;;;;;;12.05;7.85;;;12.60;99.90;;;;;;5033804;28;21686;-78
2021/10/19 06:45:02;;;;;;;;;;;12.60;99.90;;;;;;5035574;28;20053;-77
2021/10/19 06:47:29;;;;;;;10.15;6.53;;;12.60;99.90;;;;;;5051003;28;19924;-79
2021/10/19 06:49:55;;;;;;;12.07;6.30;;;12.60;99.90;;;;;;5037686;28;20048;-78
2021/10/19 06:52:21;;;;;;;7.38;5.00;;;12.60;99.90;;;;;;5052562;28;20033;-78
2021/10/19 06:54:47;;;;;;;7.20;5.57;;;12.70;99.90;;;;;;5035713;28;20406;-78
2021/10/19 06:57:13;;;;;;;17.67;5.10;;;12.70;99.90;;;;;;5019658;28;20044;-77
2021/10/19 06:59:38;;;;;;;12.50;6.15;;;12.70;99.90;;;;;;4995759;28;20048;-78
2021/10/19 07:02:04;;;;;;;8.07;7.10;;;12.80;99.90;;;;;;5004639;28;20032;-78
2021/10/19 07:04:30;;;;;;;;;;;12.80;99.90;;;;;;5017151;28;20053;-77
2021/10/19 07:06:56;;;;;;;9.50;4.75;;;12.80;99.90;;;;;;5050664;28;19942;-77
2021/10/19 07:09:22;;;;;;;13.75;6.35;;;12.80;99.90;;;;;;5030756;28;20476;-78
2021/10/19 07:11:47;;;;;;;5.75;5.15;;;12.90;99.90;;;;;;5014270;28;20394;-78
2021/10/19 07:14:13;;;;;;;6.95;5.40;;;12.90;99.90;;;;;;5039096;28;20371;-78
2021/10/19 07:16:39;;;;;;;;;;;12.90;99.90;;;;;;5018568;28;20120;-78
2021/10/19 07:19:09;;;;;;;9.73;5.15;;;12.90;99.90;;;;;;5030740;28;20366;-77
2021/10/19 07:21:38;;;;;;;15.10;7.47;;;13.00;99.90;;;;;;5052086;28;20124;-79
2021/10/19 07:24:05;;;;;;;7.95;5.20;;;13.00;99.90;;;;;;5034961;28;20045;-77
2021/10/19 07:26:31;;;;;;;9.75;5.13;;;13.10;99.90;;;;;;5031853;28;20474;-78
2021/10/19 07:28:57;;;;;;;9.20;4.68;;;13.10;99.90;;;;;;5033632;28;20489;-77
2021/10/19 07:31:23;;;;;;;5.32;4.65;;;13.10;99.90;;;;;;5012134;28;20040;-77
2021/10/19 07:33:49;;;;;;;10.48;5.30;;;13.20;99.90;;;;;;5047487;28;20039;-77
2021/10/19 07:36:15;;;;;;;;;;;13.20;99.90;;;;;;5001597;28;20072;-78
2021/10/19 07:38:41;;;;;;;9.77;6.38;;;13.30;99.90;;;;;;5043710;28;19917;-79
2021/10/19 07:41:06;;;;;;;8.85;4.97;;;13.30;99.90;;;;;;5033802;28;20044;-79
2021/10/19 07:43:32;;;;;;;11.50;6.70;;;13.30;99.90;;;;;;5031873;28;20090;-79
2021/10/19 07:45:58;;;;;;;9.90;5.78;;;13.40;99.90;;;;;;5001158;28;20382;-79
2021/10/19 07:48:24;;;;;;;11.70;5.85;;;13.40;99.90;;;;;;5049239;28;20045;-79
2021/10/19 07:50:49;;;;;;;7.53;4.40;;;13.50;99.90;;;;;;5008494;28;20041;-78
2021/10/19 07:53:16;;;;;;;9.77;4.45;;;13.50;99.90;;;;;;5018022;28;20077;-78
2021/10/19 07:55:43;;;;;;;10.73;5.78;;;13.50;99.90;;;;;;5017618;28;20397;-79
2021/10/19 07:58:09;;;;;;;6.35;4.22;;;13.50;99.90;;;;;;5032956;28;20478;-79
2021/10/19 08:00:35;;;;;;;7.18;4.20;;;13.60;99.90;;;;;;5017347;28;20044;-79
2021/10/19 08:03:01;;;;;;;5.90;4.40;;;13.60;99.90;;;;;;5033995;28;20043;-78
2021/10/19 08:05:28;;;;;;;;;;;13.70;99.90;;;;;;5018151;28;20041;-79
2021/10/19 08:08:12;;;;;;;7.18;4.53;;;13.80;99.90;;;;;;5051602;28;20015;-79
2021/10/19 08:10:40;;;;;;;8.60;4.82;;;13.80;99.90;;;;;;5034391;28;20048;-78
2021/10/19 08:13:09;;;;;;;9.23;5.22;;;13.90;99.90;;;;;;5009985;28;20037;-79
2021/10/19 08:15:35;;;;;;;9.45;5.65;;;13.90;99.90;;;;;;5018159;28;20131;-78
2021/10/19 08:18:02;;;;;;;8.60;4.72;;;13.90;99.90;;;;;;5029318;28;20048;-78
2021/10/19 08:20:28;;;;;;;8.52;4.00;;;14.00;99.90;;;;;;5013298;28;20089;-79
2021/10/19 08:22:54;;;;;;;8.57;5.32;;;14.00;99.90;;;;;;5026937;28;20347;-79
2021/10/19 08:25:20;;;;;;;5.75;4.38;;;14.00;99.90;;;;;;5014556;28;20114;-78
2021/10/19 08:27:46;;;;;;;;;;;14.00;99.90;;;;;;4998925;28;20387;-78
2021/10/19 08:30:15;;;;;;;9.85;6.22;;;14.00;99.90;;;;;;5006127;28;19928;-78
2021/10/19 08:32:42;;;;;;;7.65;5.45;;;14.10;99.90;;;;;;5030405;28;20359;-79
2021/10/19 08:35:09;;;;;;;9.65;4.82;;;14.10;99.90;;;;;;5030342;28;20534;-78
2021/10/19 08:37:36;;;;;;;6.40;4.15;;;14.00;99.90;;;;;;5020779;28;20132;-79
2021/10/19 08:40:04;;;;;;;10.00;6.50;;;14.00;99.90;;;;;;5004643;28;20567;-79
2021/10/19 08:42:31;;;;;;;6.97;4.72;;;14.00;99.90;;;;;;5011613;28;20072;-79
2021/10/19 08:44:57;;;;;;;8.57;4.78;;;14.10;99.90;;;;;;5017594;28;20044;-79
2021/10/19 08:47:24;;;;;;;6.45;4.80;;;14.10;99.90;;;;;;5018943;28;20473;-78
2021/10/19 08:49:50;;;;;;;6.32;4.20;;;14.10;99.90;;;;;;5020354;28;20080;-79
2021/10/19 08:52:16;;;;;;;12.85;5.60;;;14.10;99.90;;;;;;5024452;28;20081;-79
2021/10/19 08:54:44;;;;;;;7.20;4.95;;;14.20;99.90;;;;;;5060119;28;20044;-79
2021/10/19 08:57:15;;;;;;;8.85;4.53;;;14.20;99.90;;;;;;5011678;28;20490;-79
2021/10/19 08:59:46;;;;;;;7.45;6.00;;;14.20;99.90;;;;;;5035087;28;20045;-79
2021/10/19 09:02:13;;;;;;;6.05;4.50;;;14.20;99.90;;;;;;5021419;28;20430;-79
2021/10/19 09:04:40;;;;;;;8.70;4.30;;;14.30;99.90;;;;;;5036683;28;20045;-79
2021/10/19 09:07:06;;;;;;;5.63;4.15;;;14.30;99.90;;;;;;5053341;28;20080;-79
2021/10/19 09:09:35;;;;;;;6.38;4.18;;;14.30;99.90;;;;;;5037220;28;20134;-79
2021/10/19 09:12:00;;;;;;;8.13;5.30;;;14.30;99.90;;;;;;5031481;28;20396;-79
2021/10/19 09:14:40;;;;;;;7.78;5.07;;;14.30;99.90;;;;;;5043117;28;20040;-79
2021/10/19 09:17:09;;;;;;;7.28;5.18;;;14.30;99.90;;;;;;5037264;28;20138;-79
2021/10/19 09:19:35;;;;;;;6.80;4.50;;;14.30;99.90;;;;;;5036222;28;20111;-78
2021/10/19 09:22:02;;;;;;;6.45;4.15;;;14.30;99.90;;;;;;5044159;28;20044;-78
2021/10/19 09:24:36;;;;;;;5.57;4.20;;;14.30;99.90;;;;;;5027124;28;20047;-78
2021/10/19 09:27:04;;;;;;;8.23;5.18;;;14.30;99.90;;;;;;5036676;28;20049;-77
2021/10/19 09:29:34;;;;;;;11.32;4.00;;;14.30;99.90;;;;;;5020757;28;20041;-77
2021/10/19 09:32:03;;;;;;;4.82;3.35;;;14.40;99.90;;;;;;5053920;28;20041;-78
2021/10/19 09:34:32;;;;;;;5.30;4.72;;;14.40;99.90;;;;;;5036374;28;20049;-77
2021/10/19 09:36:59;;;;;;;5.20;3.95;;;14.40;99.90;;;;;;5036241;28;20068;-77
2021/10/19 09:39:35;;;;;;;6.35;3.33;;;14.40;99.90;;;;;;5036860;28;20091;-78
2021/10/19 09:42:03;;;;;;;6.68;4.82;;;14.50;99.90;;;;;;5035801;28;20072;-78
2021/10/19 09:44:29;;;;;;;5.30;4.20;;;14.50;99.90;;;;;;5035933;28;20052;-77
2021/10/19 09:46:56;;;;;;;;;;;14.50;99.90;;;;;;5023656;28;20485;-77
2021/10/19 09:49:22;;;;;;;4.35;3.45;;;14.50;99.90;;;;;;5019510;28;19916;-77
2021/10/19 09:51:48;;;;;;;7.22;5.00;;;14.50;99.90;;;;;;5035178;28;20049;-77
2021/10/19 09:54:18;;;;;;;;;;;14.50;99.90;;;;;;5035667;28;20045;-78
2021/10/19 09:56:44;;;;;;;5.07;3.92;;;14.60;99.90;;;;;;5018173;28;19924;-78
2021/10/19 09:59:10;;;;;;;4.97;4.47;;;14.60;99.90;;;;;;5052826;28;20052;-78
2021/10/19 10:01:36;;;;;;;7.70;3.53;;;14.60;99.90;;;;;;5009369;28;20041;-78
2021/10/19 10:04:04;;;;;;;7.10;3.60;;;14.60;99.90;;;;;;5018818;28;20124;-78
2021/10/19 10:06:31;;;;;;;7.25;4.60;;;14.70;99.90;;;;;;5015845;28;20041;-78
2021/10/19 10:09:01;;;;;;;5.55;3.88;;;14.70;99.90;;;;;;5052506;28;20089;-78
2021/10/19 10:11:27;;;;;;;8.98;4.53;;;14.80;99.90;;;;;;5019359;28;20067;-79
2021/10/19 10:13:57;;;;;;;;;;;14.80;99.90;;;;;;5036223;28;20044;-79
2021/10/19 10:16:23;;;;;;;7.40;3.72;;;14.80;99.90;;;;;;5019473;28;19917;-78
2021/10/19 10:18:49;;;;;;;5.68;3.63;;;14.90;99.90;;;;;;5031464;28;20037;-78
2021/10/19 10:21:20;;;;;;;5.93;3.95;;;15.00;99.90;;;;;;5034601;28;20470;-78
2021/10/19 10:23:57;;;;;;;4.60;3.38;;;15.10;99.90;;;;;;5033054;28;20041;-76
2021/10/19 10:26:26;;;;;;;5.63;3.08;;;15.20;99.90;;;;;;5052585;28;20509;-74
2021/10/19 10:28:52;;;;;;;8.35;4.28;;;15.20;99.90;;;;;;5020760;28;20044;-77
2021/10/19 10:31:23;;;;;;;5.63;2.97;;;15.30;99.90;;;;;;5036573;28;20115;-77
2021/10/19 10:34:00;;;;;;;4.78;3.20;;;15.40;99.90;;;;;;5019252;28;20045;-77
2021/10/19 10:36:39;;;;;;;6.60;4.00;;;15.50;99.90;;;;;;5038394;28;20049;-76
2021/10/19 10:39:07;;;;;;;5.68;3.30;;;15.50;99.90;;;;;;5034510;28;20124;-77
2021/10/19 10:41:38;;;;;;;6.78;4.07;;;15.50;99.90;;;;;;5019449;28;20052;-78
2021/10/19 10:44:04;;;;;;;8.10;3.33;;;15.50;99.90;;;;;;5033139;28;20486;-78
2021/10/19 10:46:34;;;;;;;3.90;2.65;;;15.50;99.90;;;;;;5052179;28;20041;-79
2021/10/19 10:48:59;;;;;;;4.25;3.78;;;15.50;99.90;;;;;;5049658;28;20079;-81
2021/10/19 10:51:27;;;;;;;10.00;3.97;;;15.60;99.90;;;;;;4999742;28;20077;-78
2021/10/19 10:53:54;;;;;;;4.55;3.90;;;15.70;99.90;;;;;;5018701;28;20078;-79
2021/10/19 10:56:20;;;;;;;6.32;4.00;;;15.70;99.90;;;;;;5034939;28;20398;-79
2021/10/19 10:58:46;;;;;;;4.20;2.72;;;15.80;99.90;;;;;;5032706;28;20040;-79
2021/10/19 11:01:16;;;;;;;4.75;3.90;;;15.80;99.90;;;;;;5015280;28;20040;-79
2021/10/19 11:03:53;;;;;;;5.90;3.95;;;15.80;99.90;;;;;;5030240;28;20056;-79
2021/10/19 11:06:21;;;;;;;5.05;3.35;;;15.80;99.90;;;;;;5028585;28;20102;-78
2021/10/19 11:08:55;;;;;;;5.75;3.40;;;15.80;99.90;;;;;;5031919;28;20458;-79
2021/10/19 11:11:24;;;;;;;4.32;2.58;;;15.80;99.90;;;;;;4995116;28;20037;-78
2021/10/19 11:13:54;;;;;;;3.65;2.33;;;15.80;99.90;;;;;;5031883;28;20567;-80
2021/10/19 11:16:27;;;;;;;4.45;3.05;;;15.80;99.90;;;;;;5030752;28;20114;-80
2021/10/19 11:18:53;;;;;;;4.28;2.70;;;15.90;99.90;;;;;;5028935;28;20053;-79
2021/10/19 11:21:19;;;;;;;7.55;3.55;;;15.90;99.90;;;;;;5031386;28;20052;-78
2021/10/19 11:23:46;;;;;;;5.82;2.25;;;15.80;99.90;;;;;;5012208;28;20095;-80
2021/10/19 11:26:12;;;;;;;4.22;3.03;;;15.80;99.90;;;;;;4998098;28;20525;-79
2021/10/19 11:28:41;;;;;;;7.40;3.28;;;15.80;99.90;;;;;;5031321;28;20210;-79
2021/10/19 11:31:07;;;;;;;5.32;2.35;;;15.90;99.90;;;;;;5030906;28;20041;-80
2021/10/19 11:33:38;;;;;;;6.15;3.28;;;15.90;99.90;;;;;;5013944;28;20076;-79
2021/10/19 11:36:05;;;;;;;3.25;2.90;;;16.00;99.90;;;;;;5038910;28;20095;-77
2021/10/19 11:38:31;;;;;;;5.75;2.75;;;16.00;99.90;;;;;;5041049;28;20060;-78
2021/10/19 11:41:11;;;;;;;;;;;16.10;99.90;;;;;;5032702;28;20358;-80
2021/10/19 11:43:48;;;;;;;2.78;2.25;;;16.10;99.90;;;;;;5031143;28;20010;-79
2021/10/19 11:46:20;;;;;;;3.97;2.50;;;16.10;99.90;;;;;;5014052;28;20052;-79
2021/10/19 11:48:50;;;;;;;3.47;2.80;;;16.20;99.90;;;;;;5030095;28;20136;-80
2021/10/19 11:51:18;;;;;;;3.13;2.22;;;16.30;99.90;;;;;;5014770;28;20041;-78
2021/10/19 11:53:48;;;;;;;5.82;3.70;;;16.30;99.90;;;;;;5024346;28;20033;-78
2021/10/19 11:56:16;;;;;;;5.60;2.92;;;16.30;99.90;;;;;;5033458;28;20474;-79
2021/10/19 11:58:56;;;;;;;6.18;3.78;;;16.40;99.90;;;;;;5021495;28;20079;-78
2021/10/19 12:01:24;;;;;;;5.75;2.58;;;16.40;99.90;;;;;;5018551;28;20118;-78
2021/10/19 12:04:02;;;;;;;5.05;3.13;;;16.40;99.90;;;;;;5017484;28;20494;-80
2021/10/19 12:06:31;;;;;;;4.30;2.90;;;16.50;99.90;;;;;;5034005;28;20494;-79
2021/10/19 12:08:59;;;;;;;2.28;1.95;;;16.50;99.90;;;;;;5034191;28;20074;-80
2021/10/19 12:11:27;;;;;;;6.15;3.30;;;16.50;99.90;;;;;;5032818;28;20037;-78
2021/10/19 12:13:58;;;;;;;2.95;2.40;;;16.50;99.90;;;;;;5032111;28;20537;-79
2021/10/19 12:16:27;;;;;;;2.80;2.05;;;16.60;99.90;;;;;;5052152;28;20079;-79
2021/10/19 12:18:55;;;;;;;5.30;3.10;;;16.60;99.90;;;;;;5050104;28;20037;-78
2021/10/19 12:21:21;;;;;;;3.40;1.90;;;16.60;99.90;;;;;;5049528;28;20056;-79
2021/10/19 12:23:56;;;;;;;2.63;2.35;;;16.60;99.90;;;;;;5034232;28;20033;-79
2021/10/19 12:26:23;;;;;;;2.22;1.67;;;16.60;99.90;;;;;;5016543;28;20516;-78
2021/10/19 12:28:51;;;;;;;7.57;2.78;;;16.60;99.90;;;;;;5033078;28;20516;-78
2021/10/19 12:31:18;;;;;;;3.08;2.45;;;16.50;99.90;;;;;;5033092;28;20072;-78
2021/10/19 12:33:51;;;;;;;3.05;2.40;;;16.60;99.90;;;;;;5017239;28;20079;-78
2021/10/19 12:36:22;;;;;;;4.18;2.03;;;16.60;99.90;;;;;;5036318;28;20041;-77
2021/10/19 12:38:48;;;;;;;6.50;2.83;;;16.70;99.90;;;;;;5028915;28;20094;-78
2021/10/19 12:41:17;;;;;;;;;;;16.70;99.90;;;;;;5021039;28;20101;-79
2021/10/19 12:43:49;;;;;;;3.03;2.05;;;16.80;99.90;;;;;;5015054;28;19924;-80
2021/10/19 12:46:18;;;;;;;3.75;1.98;;;16.80;99.90;;;;;;5004670;28;20045;-78
2021/10/19 12:48:44;;;;;;;4.00;1.88;;;16.90;99.90;;;;;;5008673;28;20587;-78